Time;durP1;ratioP1;P1;durP2;ratioP2;P2;SDS_P1;SDS_P2;PMS_P1;PMS_P2;Temp;Humidity;BMP_temperature;BMP_pressure;BME280_temperature;BME280_humidity;BME280_pressure;Samples;Min_cycle;Max_cycle;Signal;HPM_P1;HPM_P2
2022/10/13 00:01:38;;;;;;;;;;;13.40;70.00;;;;;;5044591;28;87383;-38
2022/10/13 00:04:04;;;;;;;;;;;13.40;70.00;;;;;;5044684;28;87421;-38
2022/10/13 00:06:30;;;;;;;;;;;13.50;70.00;;;;;;5044222;28;87103;-39
2022/10/13 00:08:57;;;;;;;;;;;13.40;70.00;;;;;;5044485;27;86949;-38
2022/10/13 00:11:24;;;;;;;;;;;13.40;69.90;;;;;;5043368;28;89314;-38
2022/10/13 00:13:50;;;;;;;;;;;13.40;69.90;;;;;;5044587;28;87115;-38
2022/10/13 00:16:17;;;;;;;;;;;13.40;69.90;;;;;;5044461;27;87353;-38
2022/10/13 00:18:43;;;;;;;;;;;13.40;69.80;;;;;;5046996;28;88281;-38
2022/10/13 00:21:10;;;;;;;;;;;13.40;69.80;;;;;;5044105;27;87109;-38
2022/10/13 00:23:36;;;;;;;;;;;13.40;69.80;;;;;;5043553;28;87910;-38
2022/10/13 00:26:03;;;;;;;;;;;13.40;69.80;;;;;;5044060;28;87090;-38
2022/10/13 00:28:29;;;;;;;;;;;13.40;69.80;;;;;;5044471;27;87323;-38
2022/10/13 00:30:54;;;;;;;;;;;13.40;69.80;;;;;;5043780;28;88434;-38
2022/10/13 00:33:20;;;;;;;;;;;13.30;69.70;;;;;;5044106;28;87085;-38
2022/10/13 00:35:46;;;;;;;;;;;13.40;69.70;;;;;;5043281;27;87904;-38
2022/10/13 00:38:12;;;;;;;;;;;13.40;69.70;;;;;;5046511;28;88007;-38
2022/10/13 00:40:42;;;;;;;;;;;13.30;69.60;;;;;;5044081;27;87365;-38
2022/10/13 00:43:14;;;;;;;;;;;13.30;69.60;;;;;;5043167;28;88230;-37
2022/10/13 00:45:39;;;;;;;;;;;13.30;69.70;;;;;;5044016;28;86953;-37
2022/10/13 00:48:05;;;;;;;;;;;13.30;69.70;;;;;;5043936;28;87589;-38
2022/10/13 00:50:38;;;;;;;;;;;13.30;69.60;;;;;;5043147;28;87225;-38
2022/10/13 00:53:04;;;;;;;;;;;13.30;69.70;;;;;;5044378;28;86342;-38
2022/10/13 00:55:32;;;;;;;;;;;13.20;69.60;;;;;;5043726;27;87049;-38
2022/10/13 00:58:01;;;;;;;;;;;13.30;69.60;;;;;;5043097;28;88086;-38
2022/10/13 01:00:27;;;;;;;;;;;13.30;69.70;;;;;;5045983;28;88045;-38
2022/10/13 01:02:52;;;;;;;;;;;13.20;69.60;;;;;;5043212;28;87763;-38
2022/10/13 01:05:19;;;;;;;;;;;13.20;69.70;;;;;;5043732;28;86838;-38
2022/10/13 01:07:47;;;;;;;;;;;13.20;69.60;;;;;;5043662;28;87364;-38
2022/10/13 01:10:23;;;;;;;;;;;13.20;69.50;;;;;;5042784;27;87155;-38
2022/10/13 01:12:56;;;;;;;;;;;13.20;69.40;;;;;;5043436;28;86969;-37
2022/10/13 01:15:26;;;;;;;;;;;13.20;69.50;;;;;;5043584;27;87540;-37
2022/10/13 01:18:01;;;;;;;;;;;13.10;70.10;;;;;;5043694;28;87416;-38
2022/10/13 01:20:35;;;;;;;;;;;13.20;69.50;;;;;;5043632;28;86936;-38
2022/10/13 01:23:19;;;;;;;;;;;13.10;69.30;;;;;;5045350;28;87405;-38
2022/10/13 01:26:07;;;;;;;;;;;13.20;69.50;;;;;;5042624;27;87973;-38
2022/10/13 01:29:05;;;;;;;;;;;13.10;69.40;;;;;;5043346;27;88441;-38
2022/10/13 01:31:36;;;;;;;;;;;13.10;69.40;;;;;;5018956;28;87027;-38
2022/10/13 01:34:14;;;;;;;;;;;13.10;69.40;;;;;;5043339;28;86906;-37
2022/10/13 01:36:49;;;;;;;;;;;13.10;69.40;;;;;;5043138;27;87574;-37
2022/10/13 01:39:22;;;;;;;;;;;13.10;69.50;;;;;;5042752;28;88123;-38
2022/10/13 01:41:51;;;;;;;;;;;13.10;69.50;;;;;;5042786;28;87014;-38
2022/10/13 01:44:22;;;;;;;;;;;13.10;69.40;;;;;;5043229;27;86567;-38
2022/10/13 01:46:49;;;;;;;;;;;13.10;69.40;;;;;;5045313;28;87815;-38
2022/10/13 01:49:16;;;;;;;;;;;13.10;69.40;;;;;;5042692;28;87496;-38
2022/10/13 01:51:43;;;;;;;;;;;13.10;69.20;;;;;;5041696;28;89151;-38
2022/10/13 01:54:09;;;;;;;;;;;13.00;69.30;;;;;;5042927;28;87070;-38
2022/10/13 01:56:34;;;;;;;;;;;13.00;69.30;;;;;;5042959;27;87190;-38
2022/10/13 01:59:02;;;;;;;;;;;13.00;69.20;;;;;;5042545;28;88251;-38
2022/10/13 02:01:39;;;;;;;;;;;13.00;69.30;;;;;;5042667;28;87149;-37
2022/10/13 02:04:11;;;;;;;;;;;13.00;69.30;;;;;;5043040;27;87300;-38
2022/10/13 02:06:37;;;;;;;;;;;12.90;69.30;;;;;;5042465;28;88133;-37
2022/10/13 02:09:08;;;;;;;;;;;12.90;69.30;;;;;;5046322;28;86751;-37
2022/10/13 02:11:34;;;;;;;;;;;12.90;69.30;;;;;;5042212;28;87602;-38
2022/10/13 02:14:22;;;;;;;;;;;13.00;69.40;;;;;;5042742;28;87174;-38
2022/10/13 02:16:49;;;;;;;;;;;13.00;69.30;;;;;;5036015;28;88514;-38
2022/10/13 02:19:16;;;;;;;;;;;13.00;69.20;;;;;;5042225;28;88168;-38
2022/10/13 02:21:41;;;;;;;;;;;12.90;69.20;;;;;;5042564;27;87149;-37
2022/10/13 02:24:07;;;;;;;;;;;12.90;69.20;;;;;;5044974;27;87601;-38
2022/10/13 02:26:33;;;;;;;;;;;12.90;69.20;;;;;;5045790;28;87276;-38
2022/10/13 02:29:05;;;;;;;;;;;12.90;69.30;;;;;;5046312;28;87043;-37
2022/10/13 02:31:31;;;;;;;;;;;12.80;69.20;;;;;;5048853;27;87415;-38
2022/10/13 02:33:57;;;;;;;;;;;12.90;69.20;;;;;;5046575;28;86349;-38
2022/10/13 02:36:22;;;;;;;;;;;12.80;69.30;;;;;;5045984;28;86936;-38
2022/10/13 02:38:48;;;;;;;;;;;12.80;69.30;;;;;;5045481;28;88114;-38
2022/10/13 02:41:13;;;;;;;;;;;12.80;69.30;;;;;;5045205;28;88062;-37
2022/10/13 02:43:39;;;;;;;;;;;12.80;69.20;;;;;;5045510;28;88456;-38
2022/10/13 02:46:05;;;;;;;;;;;12.80;69.20;;;;;;5045694;28;88004;-37
2022/10/13 02:48:30;;;;;;;;;;;12.80;69.20;;;;;;5045906;28;87154;-38
2022/10/13 02:50:56;;;;;;;;;;;12.80;69.10;;;;;;5048354;28;87335;-38
2022/10/13 02:53:21;;;;;;;;;;;12.80;69.20;;;;;;5045632;28;87173;-38
2022/10/13 02:55:47;;;;;;;;;;;12.80;69.10;;;;;;5045661;28;87418;-38
2022/10/13 02:58:12;;;;;;;;;;;12.80;69.20;;;;;;5045818;28;87182;-38
2022/10/13 03:00:38;;;;;;;;;;;12.70;69.10;;;;;;5045625;28;87152;-38
2022/10/13 03:03:04;;;;;;;;;;;12.70;69.10;;;;;;5045782;28;86781;-38
2022/10/13 03:05:29;;;;;;;;;;;12.70;69.10;;;;;;5044726;28;88961;-38
2022/10/13 03:07:55;;;;;;;;;;;12.70;69.20;;;;;;5045614;28;86790;-38
2022/10/13 03:10:21;;;;;;;;;;;12.70;69.20;;;;;;5045294;28;87397;-38
2022/10/13 03:12:46;;;;;;;;;;;12.70;69.20;;;;;;5047746;28;88107;-38
2022/10/13 03:15:12;;;;;;;;;;;12.70;69.10;;;;;;5045338;28;87440;-37
2022/10/13 03:17:37;;;;;;;;;;;12.70;69.10;;;;;;5044915;28;87992;-38
2022/10/13 03:20:03;;;;;;;;;;;12.60;69.10;;;;;;5045499;28;87200;-38
2022/10/13 03:22:32;;;;;;;;;;;12.60;69.10;;;;;;5045713;28;87536;-37
2022/10/13 03:24:58;;;;;;;;;;;12.60;69.10;;;;;;5044248;28;87878;-38
2022/10/13 03:27:24;;;;;;;;;;;12.70;69.10;;;;;;5045160;28;87063;-38
2022/10/13 03:29:49;;;;;;;;;;;12.60;69.10;;;;;;5044403;28;87904;-38
2022/10/13 03:32:15;;;;;;;;;;;12.60;69.10;;;;;;5044867;28;88117;-38
2022/10/13 03:34:41;;;;;;;;;;;12.50;69.10;;;;;;5047742;27;86960;-37
2022/10/13 03:37:06;;;;;;;;;;;12.60;69.10;;;;;;5044845;28;87944;-37
2022/10/13 03:39:32;;;;;;;;;;;12.60;69.10;;;;;;5045040;28;87110;-38
2022/10/13 03:41:57;;;;;;;;;;;12.60;69.20;;;;;;5044860;28;87350;-37
2022/10/13 03:44:23;;;;;;;;;;;12.60;69.10;;;;;;5044396;28;87897;-38
2022/10/13 03:46:48;;;;;;;;;;;12.50;69.10;;;;;;5045719;28;86287;-38
2022/10/13 03:49:14;;;;;;;;;;;12.50;69.10;;;;;;5044804;28;87039;-38
2022/10/13 03:51:39;;;;;;;;;;;12.50;69.10;;;;;;5044307;28;88044;-38
2022/10/13 03:54:05;;;;;;;;;;;12.50;69.10;;;;;;5044107;28;88082;-38
2022/10/13 03:56:30;;;;;;;;;;;12.50;69.00;;;;;;5047074;28;88249;-37
2022/10/13 03:58:57;;;;;;;;;;;12.50;69.00;;;;;;5044610;28;87200;-38
2022/10/13 04:01:24;;;;;;;;;;;12.50;69.00;;;;;;5044298;27;87904;-37
2022/10/13 04:03:54;;;;;;;;;;;12.50;68.90;;;;;;5044049;28;87607;-38
2022/10/13 04:06:20;;;;;;;;;;;12.50;69.00;;;;;;5044592;28;87121;-38
2022/10/13 04:08:45;;;;;;;;;;;12.50;69.00;;;;;;5044483;27;87024;-38
2022/10/13 04:11:12;;;;;;;;;;;12.40;69.00;;;;;;5044454;28;87371;-38
2022/10/13 04:13:37;;;;;;;;;;;12.40;69.10;;;;;;5044589;28;87086;-37
2022/10/13 04:16:04;;;;;;;;;;;12.40;69.00;;;;;;5044678;27;87296;-37
2022/10/13 04:18:30;;;;;;;;;;;12.40;69.00;;;;;;5046315;28;89132;-38
2022/10/13 04:20:55;;;;;;;;;;;12.40;69.10;;;;;;5044313;27;88258;-37
2022/10/13 04:23:21;;;;;;;;;;;12.40;69.20;;;;;;5043570;28;88205;-37
2022/10/13 04:25:46;;;;;;;;;;;12.40;69.10;;;;;;5044292;28;87313;-38
2022/10/13 04:28:12;;;;;;;;;;;12.40;69.10;;;;;;5044254;28;87747;-38
2022/10/13 04:30:38;;;;;;;;;;;12.40;69.00;;;;;;5043947;28;87817;-38
2022/10/13 04:33:04;;;;;;;;;;;12.30;68.90;;;;;;5044087;28;86907;-37
2022/10/13 04:35:29;;;;;;;;;;;12.30;68.90;;;;;;5044703;27;87759;-38
2022/10/13 04:37:58;;;;;;;;;;;12.30;69.00;;;;;;5043564;28;88206;-38
2022/10/13 04:40:24;;;;;;;;;;;12.30;69.00;;;;;;5046736;28;86918;-38
2022/10/13 04:42:49;;;;;;;;;;;12.30;69.00;;;;;;5042913;28;88991;-38
2022/10/13 04:45:15;;;;;;;;;;;12.30;69.10;;;;;;5043198;28;87050;-37
2022/10/13 04:47:41;;;;;;;;;;;12.30;69.00;;;;;;5044184;27;87376;-38
2022/10/13 04:50:06;;;;;;;;;;;12.30;69.00;;;;;;5043506;28;87978;-37
2022/10/13 04:52:33;;;;;;;;;;;12.30;68.90;;;;;;5043772;28;87104;-37
2022/10/13 04:54:58;;;;;;;;;;;12.30;68.90;;;;;;5043564;27;87373;-37
2022/10/13 04:57:23;;;;;;;;;;;12.30;68.90;;;;;;5043029;28;87317;-38
2022/10/13 04:59:49;;;;;;;;;;;12.30;69.10;;;;;;5047118;28;86344;-38
2022/10/13 05:02:15;;;;;;;;;;;12.20;68.90;;;;;;5043459;28;87931;-38
2022/10/13 05:04:41;;;;;;;;;;;12.20;68.90;;;;;;5043760;28;87477;-38
2022/10/13 05:07:06;;;;;;;;;;;12.20;68.90;;;;;;5043003;28;87949;-37
2022/10/13 05:09:32;;;;;;;;;;;12.20;68.90;;;;;;5043281;28;88165;-37
2022/10/13 05:11:58;;;;;;;;;;;12.20;68.90;;;;;;5043195;28;86968;-37
2022/10/13 05:14:23;;;;;;;;;;;12.20;68.90;;;;;;5043411;27;87647;-38
2022/10/13 05:16:49;;;;;;;;;;;12.20;68.90;;;;;;5043177;28;88114;-38
2022/10/13 05:19:14;;;;;;;;;;;12.20;68.90;;;;;;5043953;28;87465;-37
2022/10/13 05:21:40;;;;;;;;;;;12.20;68.90;;;;;;5046073;28;87284;-38
2022/10/13 05:24:06;;;;;;;;;;;12.20;69.00;;;;;;5043290;28;86689;-37
2022/10/13 05:26:34;;;;;;;;;;;12.20;68.90;;;;;;5043208;28;86971;-37
2022/10/13 05:29:00;;;;;;;;;;;12.20;68.90;;;;;;5042724;28;88252;-38
2022/10/13 05:31:27;;;;;;;;;;;12.20;69.00;;;;;;5042330;28;88015;-37
2022/10/13 05:33:52;;;;;;;;;;;12.10;68.90;;;;;;5043168;27;87111;-37
2022/10/13 05:36:20;;;;;;;;;;;12.10;69.00;;;;;;5042935;28;87307;-37
2022/10/13 05:38:48;;;;;;;;;;;12.10;69.00;;;;;;5043207;28;87094;-37
2022/10/13 05:41:14;;;;;;;;;;;12.10;69.00;;;;;;5043090;28;87591;-37
2022/10/13 05:43:40;;;;;;;;;;;12.10;69.00;;;;;;5045400;28;87364;-37
2022/10/13 05:46:06;;;;;;;;;;;12.10;69.00;;;;;;5043260;27;87740;-37
2022/10/13 05:48:32;;;;;;;;;;;12.10;69.10;;;;;;5043157;28;87227;-37
2022/10/13 05:50:59;;;;;;;;;;;12.00;69.20;;;;;;5042951;28;87111;-37
2022/10/13 05:53:26;;;;;;;;;;;12.00;69.10;;;;;;5042821;27;87540;-37
2022/10/13 05:55:52;;;;;;;;;;;12.00;69.10;;;;;;5041746;28;88306;-37
2022/10/13 05:58:18;;;;;;;;;;;12.10;69.10;;;;;;5041636;28;88191;-38
2022/10/13 06:00:43;;;;;;;;;;;12.10;69.10;;;;;;5043018;27;87512;-37
2022/10/13 06:03:11;;;;;;;;;;;12.00;69.10;;;;;;5042417;28;87898;-37
2022/10/13 06:05:37;;;;;;;;;;;12.00;69.10;;;;;;5045411;28;87087;-38
2022/10/13 06:08:02;;;;;;;;;;;12.00;68.90;;;;;;5042449;28;87874;-37
2022/10/13 06:10:28;;;;;;;;;;;12.00;69.00;;;;;;5042581;28;86866;-37
2022/10/13 06:12:53;;;;;;;;;;;12.00;69.00;;;;;;5043195;28;87387;-37
2022/10/13 06:15:19;;;;;;;;;;;12.00;69.00;;;;;;5042208;28;88128;-37
2022/10/13 06:17:45;;;;;;;;;;;12.00;69.00;;;;;;5042726;28;87339;-38
2022/10/13 06:20:10;;;;;;;;;;;12.00;69.10;;;;;;5042241;28;87822;-38
2022/10/13 06:22:36;;;;;;;;;;;12.00;69.20;;;;;;5042059;28;87680;-38
2022/10/13 06:25:03;;;;;;;;;;;12.00;69.20;;;;;;5042244;28;87214;-38
2022/10/13 06:27:29;;;;;;;;;;;12.00;69.20;;;;;;5045243;27;88101;-37
2022/10/13 06:29:54;;;;;;;;;;;11.90;69.20;;;;;;5042630;28;87149;-37
2022/10/13 06:32:20;;;;;;;;;;;11.90;69.30;;;;;;5042453;28;87284;-37
2022/10/13 06:34:46;;;;;;;;;;;11.90;69.40;;;;;;5042232;28;87987;-37
2022/10/13 06:37:11;;;;;;;;;;;11.90;69.40;;;;;;5042970;28;86369;-37
2022/10/13 06:39:37;;;;;;;;;;;11.90;69.40;;;;;;5042240;28;87067;-37
2022/10/13 06:42:02;;;;;;;;;;;11.90;69.50;;;;;;5041892;28;88125;-37
2022/10/13 06:44:29;;;;;;;;;;;11.90;69.50;;;;;;5041440;28;88036;-38
2022/10/13 06:46:54;;;;;;;;;;;11.90;69.60;;;;;;5044713;27;88307;-37
2022/10/13 06:49:22;;;;;;;;;;;11.90;69.60;;;;;;5042251;28;87153;-37
2022/10/13 06:51:47;;;;;;;;;;;11.80;69.60;;;;;;5042176;27;87369;-37
2022/10/13 06:54:13;;;;;;;;;;;11.80;69.60;;;;;;5041731;28;87913;-38
2022/10/13 06:56:38;;;;;;;;;;;11.90;69.70;;;;;;5042081;28;87116;-37
2022/10/13 06:59:04;;;;;;;;;;;11.90;69.70;;;;;;5042050;28;87424;-38
2022/10/13 07:01:29;;;;;;;;;;;11.90;69.70;;;;;;5042233;28;87244;-38
2022/10/13 07:03:55;;;;;;;;;;;11.80;69.60;;;;;;5042034;28;87074;-37
2022/10/13 07:06:20;;;;;;;;;;;11.90;69.70;;;;;;5042093;28;87502;-37
2022/10/13 07:08:46;;;;;;;;;;;11.90;69.60;;;;;;5044248;28;89100;-37
2022/10/13 07:11:12;;;;;;;;;;;11.90;69.60;;;;;;5045793;28;88327;-37
2022/10/13 07:13:38;;;;;;;;;;;11.90;69.60;;;;;;5044927;28;87981;-37
2022/10/13 07:16:04;;;;;;;;;;;11.80;69.60;;;;;;5045294;28;87091;-37
2022/10/13 07:18:30;;;;;;;;;;;11.80;69.60;;;;;;5045391;28;87618;-36
2022/10/13 07:20:57;;;;;;;;;;;11.90;69.70;;;;;;5045005;28;88142;-37
2022/10/13 07:23:22;;;;;;;;;;;11.90;69.70;;;;;;5043285;28;87191;-37
2022/10/13 07:25:48;;;;;;;;;;;11.80;69.60;;;;;;5045592;28;87566;-37
2022/10/13 07:28:13;;;;;;;;;;;11.80;69.60;;;;;;5044823;28;88084;-37
2022/10/13 07:30:39;;;;;;;;;;;11.80;69.60;;;;;;5048021;28;87037;-37
2022/10/13 07:33:04;;;;;;;;;;;11.80;69.60;;;;;;5044054;28;88937;-37
2022/10/13 07:35:30;;;;;;;;;;;11.90;69.80;;;;;;5044943;28;87067;-37
2022/10/13 07:37:55;;;;;;;;;;;11.80;69.70;;;;;;5045092;28;87415;-38
2022/10/13 07:40:21;;;;;;;;;;;11.80;69.80;;;;;;5044359;28;88975;-37
2022/10/13 07:42:47;;;;;;;;;;;11.80;69.90;;;;;;5045039;28;87098;-38
2022/10/13 07:45:12;;;;;;;;;;;11.80;70.00;;;;;;5044745;27;87432;-37
2022/10/13 07:47:38;;;;;;;;;;;11.80;70.10;;;;;;5044456;28;88212;-37
2022/10/13 07:50:04;;;;;;;;;;;11.80;70.10;;;;;;5045253;28;86361;-37
2022/10/13 07:52:29;;;;;;;;;;;11.80;70.00;;;;;;5047099;28;87743;-37
2022/10/13 07:54:55;;;;;;;;;;;11.80;70.10;;;;;;5044612;28;87158;-37
2022/10/13 07:57:21;;;;;;;;;;;11.80;70.00;;;;;;5044323;27;88003;-38
2022/10/13 07:59:46;;;;;;;;;;;11.80;70.00;;;;;;5044512;28;88237;-37
2022/10/13 08:02:12;;;;;;;;;;;11.80;70.20;;;;;;5044669;28;87119;-38
2022/10/13 08:04:38;;;;;;;;;;;11.80;70.30;;;;;;5044765;27;87456;-37
2022/10/13 08:07:04;;;;;;;;;;;11.80;70.40;;;;;;5044277;28;88373;-38
2022/10/13 08:09:30;;;;;;;;;;;11.80;70.20;;;;;;5044325;28;87698;-38
2022/10/13 08:11:56;;;;;;;;;;;11.80;70.20;;;;;;5044346;27;87198;-38
2022/10/13 08:14:21;;;;;;;;;;;11.80;70.30;;;;;;5047672;28;87252;-37
2022/10/13 08:16:47;;;;;;;;;;;11.80;70.20;;;;;;5044760;28;86865;-38
2022/10/13 08:19:14;;;;;;;;;;;11.80;70.30;;;;;;5044002;28;87221;-37
2022/10/13 08:21:39;;;;;;;;;;;11.80;70.20;;;;;;5042806;28;88033;-37
2022/10/13 08:24:09;;;;;;;;;;;11.80;70.20;;;;;;5043542;28;88501;-38
2022/10/13 08:26:35;;;;;;;;;;;11.80;70.50;;;;;;5043639;28;87948;-37
2022/10/13 08:29:00;;;;;;;;;;;11.80;70.30;;;;;;5044252;28;87071;-37
2022/10/13 08:31:26;;;;;;;;;;;11.80;70.10;;;;;;5044183;27;87279;-37
2022/10/13 08:33:51;;;;;;;;;;;11.80;70.20;;;;;;5044047;28;88050;-37
2022/10/13 08:36:17;;;;;;;;;;;11.80;70.40;;;;;;5047321;28;87120;-37
2022/10/13 08:38:43;;;;;;;;;;;11.80;70.20;;;;;;5043899;28;87324;-37
2022/10/13 08:41:17;;;;;;;;;;;11.80;70.20;;;;;;5044248;28;87095;-38
2022/10/13 08:43:51;;;;;;;;;;;11.80;71.10;;;;;;5043761;27;87388;-37
2022/10/13 08:46:25;;;;;;;;;;;11.80;70.40;;;;;;5042906;28;88725;-38
2022/10/13 08:48:50;;;;;;;;;;;11.80;70.50;;;;;;5043786;28;87164;-37
2022/10/13 08:51:16;;;;;;;;;;;11.80;70.30;;;;;;5043653;27;87374;-37
2022/10/13 08:53:44;;;;;;;;;;;11.80;70.30;;;;;;5043465;28;88022;-37
2022/10/13 08:56:14;;;;;;;;;;;11.80;70.40;;;;;;5046896;28;87052;-37
2022/10/13 08:58:40;;;;;;;;;;;11.80;70.40;;;;;;5043215;28;87024;-37
2022/10/13 09:01:15;;;;;;;;;;;11.90;70.30;;;;;;5043734;28;87034;-38
2022/10/13 09:03:54;;;;;;;;;;;11.80;70.30;;;;;;5044055;27;86594;-38
2022/10/13 09:06:27;;;;;;;;;;;11.80;70.50;;;;;;5043254;28;88498;-38
2022/10/13 09:08:53;;;;;;;;;;;11.90;70.30;;;;;;5043510;28;86889;-38
2022/10/13 09:11:19;;;;;;;;;;;11.80;70.30;;;;;;5042999;28;88078;-37
2022/10/13 09:13:44;;;;;;;;;;;11.90;70.30;;;;;;5043057;28;87831;-38
2022/10/13 09:16:10;;;;;;;;;;;11.90;70.40;;;;;;5043695;28;87071;-37
2022/10/13 09:18:36;;;;;;;;;;;11.90;70.40;;;;;;5045783;27;87214;-37
2022/10/13 09:21:14;;;;;;;;;;;11.80;70.50;;;;;;5043339;28;87045;-37
2022/10/13 09:23:39;;;;;;;;;;;11.80;70.70;;;;;;5043028;28;87309;-37
2022/10/13 09:26:06;;;;;;;;;;;11.90;70.60;;;;;;5043137;28;88116;-37
2022/10/13 09:28:32;;;;;;;;;;;11.90;70.70;;;;;;5043834;28;86347;-38
2022/10/13 09:31:17;;;;;;;;;;;11.90;70.60;;;;;;5043179;27;87065;-37
2022/10/13 09:33:44;;;;;;;;;;;11.90;70.60;;;;;;5043048;28;87187;-38
2022/10/13 09:36:14;;;;;;;;;;;11.90;70.60;;;;;;5042713;28;88054;-37
2022/10/13 09:38:41;;;;;;;;;;;12.00;70.60;;;;;;5043080;27;88496;-37
2022/10/13 09:41:11;;;;;;;;;;;11.90;70.70;;;;;;5045630;28;87982;-38
2022/10/13 09:43:46;;;;;;;;;;;11.90;70.80;;;;;;5042979;27;87370;-37
2022/10/13 09:46:17;;;;;;;;;;;12.00;70.30;;;;;;5042531;28;88392;-37
2022/10/13 09:48:46;;;;;;;;;;;12.00;70.50;;;;;;5041321;28;87172;-37
2022/10/13 09:51:30;;;;;;;;;;;11.90;71.00;;;;;;5042843;27;86999;-37
2022/10/13 09:53:55;;;;;;;;;;;11.90;70.80;;;;;;5042888;28;87405;-37
2022/10/13 09:56:24;;;;;;;;;;;11.90;70.60;;;;;;5042903;28;87155;-37
2022/10/13 09:58:54;;;;;;;;;;;11.90;70.80;;;;;;5042779;28;87667;-37
2022/10/13 10:01:27;;;;;;;;;;;11.90;70.80;;;;;;5041771;28;88217;-37
2022/10/13 10:03:53;;;;;;;;;;;11.90;70.80;;;;;;5045699;28;87272;-37
2022/10/13 10:06:19;;;;;;;;;;;11.90;70.80;;;;;;5042562;28;88247;-37
2022/10/13 10:08:50;;;;;;;;;;;11.90;70.90;;;;;;5042409;28;86896;-38
2022/10/13 10:11:21;;;;;;;;;;;11.90;71.00;;;;;;5042711;28;87391;-37
2022/10/13 10:13:46;;;;;;;;;;;11.90;70.80;;;;;;5042199;28;87432;-38
2022/10/13 10:16:30;;;;;;;;;;;11.90;70.80;;;;;;5042715;28;87100;-37
2022/10/13 10:19:02;;;;;;;;;;;11.90;70.90;;;;;;5043037;27;87283;-38
2022/10/13 10:21:37;;;;;;;;;;;11.90;71.10;;;;;;5042019;28;87977;-37
2022/10/13 10:24:11;;;;;;;;;;;11.90;71.10;;;;;;5042254;28;87112;-37
2022/10/13 10:26:36;;;;;;;;;;;11.80;71.10;;;;;;5044717;27;87882;-37
2022/10/13 10:29:02;;;;;;;;;;;11.90;71.30;;;;;;5042617;28;87165;-37
2022/10/13 10:31:38;;;;;;;;;;;11.90;71.30;;;;;;5042406;28;87327;-37
2022/10/13 10:34:15;;;;;;;;;;;11.90;71.50;;;;;;5041953;28;87820;-37
2022/10/13 10:36:44;;;;;;;;;;;11.90;71.50;;;;;;5042568;28;86997;-38
2022/10/13 10:39:28;;;;;;;;;;;12.00;71.10;;;;;;5042441;27;87409;-37
2022/10/13 10:42:17;;;;;;;;;;;12.10;70.90;;;;;;5042083;27;88126;-37
2022/10/13 10:44:43;;;;;;;;;;;12.00;71.10;;;;;;5024291;28;86330;-37
2022/10/13 10:47:18;;;;;;;;;;;12.10;70.90;;;;;;5045735;27;86942;-37
2022/10/13 10:49:44;;;;;;;;;;;12.10;70.90;;;;;;5048407;28;88083;-37
2022/10/13 10:52:16;;;;;;;;;;;12.20;70.90;;;;;;5045009;28;87875;-37
2022/10/13 10:54:52;;;;;;;;;;;12.20;70.60;;;;;;5045274;28;88044;-37
2022/10/13 10:57:26;;;;;;;;;;;12.20;70.50;;;;;;5045488;28;87134;-38
2022/10/13 11:00:03;;;;;;;;;;;12.30;70.60;;;;;;5045813;27;87570;-38
2022/10/13 11:02:47;;;;;;;;;;;12.30;70.50;;;;;;5045244;28;87302;-38
2022/10/13 11:05:13;;;;;;;;;;;12.30;70.50;;;;;;5045430;28;87016;-37
2022/10/13 11:07:39;;;;;;;;;;;12.30;70.50;;;;;;5045507;27;87438;-37
2022/10/13 11:10:16;;;;;;;;;;;12.30;70.50;;;;;;5048757;28;86545;-37
2022/10/13 11:12:45;;;;;;;;;;;12.30;70.50;;;;;;5045273;27;86995;-37
2022/10/13 11:15:12;;;;;;;;;;;12.30;70.70;;;;;;5044986;28;87313;-37
2022/10/13 11:17:39;;;;;;;;;;;12.30;70.70;;;;;;5044436;28;88063;-38
2022/10/13 11:20:20;;;;;;;;;;;12.40;70.70;;;;;;5045347;27;88307;-37
2022/10/13 11:22:57;;;;;;;;;;;12.40;70.60;;;;;;5044703;28;88216;-38
2022/10/13 11:25:41;;;;;;;;;;;12.40;70.70;;;;;;5045287;28;86984;-38
2022/10/13 11:28:22;;;;;;;;;;;12.40;70.70;;;;;;5044935;27;87369;-38
2022/10/13 11:30:54;;;;;;;;;;;12.40;70.70;;;;;;5044844;28;87125;-38
2022/10/13 11:33:35;;;;;;;;;;;12.40;70.60;;;;;;5048063;28;87189;-37
2022/10/13 11:36:19;;;;;;;;;;;12.40;71.10;;;;;;5045333;28;86415;-37
2022/10/13 11:38:48;;;;;;;;;;;12.50;70.90;;;;;;5045171;27;87164;-38
2022/10/13 11:41:17;;;;;;;;;;;12.50;71.00;;;;;;5045035;28;87468;-37
2022/10/13 11:43:46;;;;;;;;;;;12.50;71.20;;;;;;5043877;28;88071;-37
2022/10/13 11:46:17;;;;;;;;;;;12.50;70.70;;;;;;5044538;28;87078;-38
2022/10/13 11:48:43;;;;;;;;;;;12.50;70.90;;;;;;5044883;28;86994;-38
2022/10/13 11:51:08;;;;;;;;;;;12.60;71.00;;;;;;5044222;28;88237;-37
2022/10/13 11:53:40;;;;;;;;;;;12.60;71.00;;;;;;5043316;28;86859;-37
2022/10/13 11:56:16;;;;;;;;;;;12.60;70.90;;;;;;5047433;27;87864;-37
2022/10/13 11:58:42;;;;;;;;;;;12.60;70.80;;;;;;5043315;28;87069;-38
2022/10/13 12:01:11;;;;;;;;;;;12.60;71.10;;;;;;5045302;28;87604;-37
2022/10/13 12:03:38;;;;;;;;;;;12.60;71.00;;;;;;5043974;28;88734;-37
2022/10/13 12:06:06;;;;;;;;;;;12.60;71.00;;;;;;5044562;28;87080;-38
2022/10/13 12:08:34;;;;;;;;;;;12.60;70.80;;;;;;5043863;27;87883;-38
2022/10/13 12:11:01;;;;;;;;;;;12.70;71.00;;;;;;5043998;28;88496;-37
2022/10/13 12:13:28;;;;;;;;;;;12.70;71.10;;;;;;5044348;28;86979;-38
2022/10/13 12:16:05;;;;;;;;;;;12.70;70.80;;;;;;5044316;27;87342;-38
2022/10/13 12:18:33;;;;;;;;;;;12.70;71.20;;;;;;5047169;28;87278;-37
2022/10/13 12:21:03;;;;;;;;;;;12.70;71.10;;;;;;5044280;28;87462;-38
2022/10/13 12:23:29;;;;;;;;;;;12.70;71.30;;;;;;5043687;28;87956;-37
2022/10/13 12:25:58;;;;;;;;;;;12.70;71.30;;;;;;5044493;28;86276;-37
2022/10/13 12:28:26;;;;;;;;;;;12.70;71.40;;;;;;5044200;27;87032;-37
2022/10/13 12:30:56;;;;;;;;;;;12.80;71.50;;;;;;5043918;28;87801;-38
2022/10/13 12:33:24;;;;;;;;;;;12.80;71.60;;;;;;5043262;28;88208;-38
2022/10/13 12:35:50;;;;;;;;;;;12.80;71.50;;;;;;5044155;27;88255;-37
2022/10/13 12:38:19;;;;;;;;;;;12.80;71.10;;;;;;5043766;28;87309;-37
2022/10/13 12:40:47;;;;;;;;;;;12.80;71.60;;;;;;5046948;28;87006;-37
2022/10/13 12:43:15;;;;;;;;;;;12.80;71.50;;;;;;5043368;28;88328;-38
2022/10/13 12:45:41;;;;;;;;;;;12.80;71.50;;;;;;5042251;28;87108;-38
2022/10/13 12:48:26;;;;;;;;;;;12.80;71.60;;;;;;5044085;28;87514;-38
2022/10/13 12:50:52;;;;;;;;;;;12.90;71.50;;;;;;5044188;28;87237;-38
2022/10/13 12:53:20;;;;;;;;;;;12.80;71.50;;;;;;5043939;28;87721;-38
2022/10/13 12:55:54;;;;;;;;;;;12.80;71.50;;;;;;5043724;27;87122;-38
2022/10/13 12:58:35;;;;;;;;;;;12.80;71.60;;;;;;5042641;28;89137;-37
2022/10/13 13:01:03;;;;;;;;;;;12.90;71.60;;;;;;5043711;28;87096;-38
2022/10/13 13:03:29;;;;;;;;;;;12.90;71.40;;;;;;5046206;28;87455;-37
2022/10/13 13:06:12;;;;;;;;;;;12.90;71.70;;;;;;5043556;27;87064;-37
2022/10/13 13:08:38;;;;;;;;;;;12.90;71.60;;;;;;5043385;28;87463;-37
2022/10/13 13:11:20;;;;;;;;;;;13.00;71.60;;;;;;5043358;28;87815;-38
2022/10/13 13:13:45;;;;;;;;;;;12.90;71.60;;;;;;5043647;28;87035;-38
2022/10/13 13:16:15;;;;;;;;;;;13.00;71.80;;;;;;5044134;28;87408;-38
2022/10/13 13:18:41;;;;;;;;;;;12.90;71.70;;;;;;5043126;28;87981;-37
2022/10/13 13:21:08;;;;;;;;;;;13.00;71.80;;;;;;5043307;28;87122;-37
2022/10/13 13:23:34;;;;;;;;;;;13.00;71.50;;;;;;5044963;27;88014;-37
2022/10/13 13:26:12;;;;;;;;;;;13.00;71.60;;;;;;5043374;28;87087;-37
2022/10/13 13:28:38;;;;;;;;;;;13.10;71.60;;;;;;5043222;27;87331;-38
2022/10/13 13:31:04;;;;;;;;;;;13.00;71.50;;;;;;5042835;28;88541;-37
2022/10/13 13:33:29;;;;;;;;;;;13.10;71.70;;;;;;5043197;28;87123;-38
2022/10/13 13:35:55;;;;;;;;;;;13.10;71.60;;;;;;5043351;28;87494;-37
2022/10/13 13:38:20;;;;;;;;;;;13.10;71.70;;;;;;5043001;28;87995;-38
2022/10/13 13:40:46;;;;;;;;;;;13.10;71.70;;;;;;5043471;28;86403;-38
2022/10/13 13:43:11;;;;;;;;;;;13.10;71.70;;;;;;5043262;28;86878;-37
2022/10/13 13:45:37;;;;;;;;;;;13.10;71.70;;;;;;5045539;28;88116;-37
2022/10/13 13:48:02;;;;;;;;;;;13.10;71.90;;;;;;5042330;27;88530;-37
2022/10/13 13:50:33;;;;;;;;;;;13.10;71.70;;;;;;5042559;28;88227;-38
2022/10/13 13:52:58;;;;;;;;;;;13.20;71.90;;;;;;5042763;28;87088;-38
2022/10/13 13:55:24;;;;;;;;;;;13.10;71.80;;;;;;5043007;27;86950;-38
2022/10/13 13:57:50;;;;;;;;;;;13.20;71.90;;;;;;5042545;28;88016;-38
2022/10/13 14:00:16;;;;;;;;;;;13.10;71.90;;;;;;5043088;28;87133;-37
2022/10/13 14:02:42;;;;;;;;;;;13.10;71.90;;;;;;5042791;27;87515;-38
2022/10/13 14:05:08;;;;;;;;;;;13.20;72.10;;;;;;5042904;28;87297;-37
2022/10/13 14:07:34;;;;;;;;;;;13.20;72.00;;;;;;5045717;28;87036;-38
2022/10/13 14:09:59;;;;;;;;;;;13.20;72.00;;;;;;5042453;28;88104;-37
2022/10/13 14:12:25;;;;;;;;;;;13.20;72.00;;;;;;5042038;28;88026;-38
2022/10/13 14:14:50;;;;;;;;;;;13.20;72.00;;;;;;5042468;28;88341;-37
2022/10/13 14:17:16;;;;;;;;;;;13.20;71.90;;;;;;5042275;28;88386;-37
2022/10/13 14:19:41;;;;;;;;;;;13.20;72.00;;;;;;5044738;28;87113;-38
2022/10/13 14:22:07;;;;;;;;;;;13.20;72.00;;;;;;5046285;27;87346;-38